sensor_id;sensor_type;location;lat;lon;timestamp;temperature;humidity
18611;DHT22;9435;52.122;5.502;2022-11-18T00:02:23;8.10;99.90
18611;DHT22;9435;52.122;5.502;2022-11-18T00:04:50;8.10;99.90
18611;DHT22;9435;52.122;5.502;2022-11-18T00:07:17;8.00;99.90
18611;DHT22;9435;52.122;5.502;2022-11-18T00:09:44;8.10;99.90
18611;DHT22;9435;52.122;5.502;2022-11-18T00:12:11;8.10;99.90
18611;DHT22;9435;52.122;5.502;2022-11-18T00:14:57;8.10;99.90
18611;DHT22;9435;52.122;5.502;2022-11-18T00:17:24;8.00;99.90
18611;DHT22;9435;52.122;5.502;2022-11-18T00:19:51;8.00;99.90
18611;DHT22;9435;52.122;5.502;2022-11-18T00:22:18;8.00;99.90
18611;DHT22;9435;52.122;5.502;2022-11-18T00:24:45;7.90;99.90
18611;DHT22;9435;52.122;5.502;2022-11-18T00:27:12;7.90;99.90
18611;DHT22;9435;52.122;5.502;2022-11-18T00:29:39;7.90;99.90
18611;DHT22;9435;52.122;5.502;2022-11-18T00:32:07;7.90;99.90
18611;DHT22;9435;52.122;5.502;2022-11-18T00:34:34;7.90;99.90
18611;DHT22;9435;52.122;5.502;2022-11-18T00:37:01;7.90;99.90
18611;DHT22;9435;52.122;5.502;2022-11-18T00:39:28;7.80;99.90
18611;DHT22;9435;52.122;5.502;2022-11-18T00:41:55;7.90;99.90
18611;DHT22;9435;52.122;5.502;2022-11-18T00:44:40;7.80;99.90
18611;DHT22;9435;52.122;5.502;2022-11-18T00:47:08;7.70;99.90
18611;DHT22;9435;52.122;5.502;2022-11-18T00:49:35;7.80;99.90
18611;DHT22;9435;52.122;5.502;2022-11-18T00:52:02;7.70;99.90
18611;DHT22;9435;52.122;5.502;2022-11-18T00:54:30;7.70;99.90
18611;DHT22;9435;52.122;5.502;2022-11-18T00:56:57;7.70;99.90
18611;DHT22;9435;52.122;5.502;2022-11-18T00:59:24;7.70;99.90
18611;DHT22;9435;52.122;5.502;2022-11-18T01:01:51;7.60;99.90
18611;DHT22;9435;52.122;5.502;2022-11-18T01:04:20;7.70;99.90
18611;DHT22;9435;52.122;5.502;2022-11-18T01:06:47;7.60;99.90
18611;DHT22;9435;52.122;5.502;2022-11-18T01:09:14;7.60;99.90
18611;DHT22;9435;52.122;5.502;2022-11-18T01:11:41;7.60;99.90
18611;DHT22;9435;52.122;5.502;2022-11-18T01:14:25;7.60;99.90
18611;DHT22;9435;52.122;5.502;2022-11-18T01:16:53;7.60;99.90
18611;DHT22;9435;52.122;5.502;2022-11-18T01:19:22;7.60;99.90
18611;DHT22;9435;52.122;5.502;2022-11-18T01:21:50;7.60;99.90
18611;DHT22;9435;52.122;5.502;2022-11-18T01:24:17;7.60;99.90
18611;DHT22;9435;52.122;5.502;2022-11-18T01:26:44;7.60;99.90
18611;DHT22;9435;52.122;5.502;2022-11-18T01:29:11;7.60;99.90
18611;DHT22;9435;52.122;5.502;2022-11-18T01:31:38;7.60;99.90
18611;DHT22;9435;52.122;5.502;2022-11-18T01:34:05;7.50;99.90
18611;DHT22;9435;52.122;5.502;2022-11-18T01:36:33;7.50;99.90
18611;DHT22;9435;52.122;5.502;2022-11-18T01:39:00;7.50;99.90
18611;DHT22;9435;52.122;5.502;2022-11-18T01:41:27;7.60;99.90
18611;DHT22;9435;52.122;5.502;2022-11-18T01:43:56;7.60;99.90
18611;DHT22;9435;52.122;5.502;2022-11-18T01:46:25;7.50;99.90
18611;DHT22;9435;52.122;5.502;2022-11-18T01:48:55;7.50;99.90
18611;DHT22;9435;52.122;5.502;2022-11-18T01:51:27;7.60;99.90
18611;DHT22;9435;52.122;5.502;2022-11-18T01:53:58;7.60;99.90
18611;DHT22;9435;52.122;5.502;2022-11-18T01:56:31;7.60;99.90
18611;DHT22;9435;52.122;5.502;2022-11-18T01:59:02;7.60;99.90
18611;DHT22;9435;52.122;5.502;2022-11-18T02:01:31;7.60;99.90
18611;DHT22;9435;52.122;5.502;2022-11-18T02:03:58;7.60;99.90
18611;DHT22;9435;52.122;5.502;2022-11-18T02:06:25;7.60;99.90
18611;DHT22;9435;52.122;5.502;2022-11-18T02:08:53;7.50;99.90
18611;DHT22;9435;52.122;5.502;2022-11-18T02:11:22;7.50;99.90
18611;DHT22;9435;52.122;5.502;2022-11-18T02:14:07;7.50;99.90
18611;DHT22;9435;52.122;5.502;2022-11-18T02:16:43;7.40;99.90
18611;DHT22;9435;52.122;5.502;2022-11-18T02:19:25;7.50;99.90
18611;DHT22;9435;52.122;5.502;2022-11-18T02:22:03;7.40;99.90
18611;DHT22;9435;52.122;5.502;2022-11-18T02:24:41;7.40;99.90
18611;DHT22;9435;52.122;5.502;2022-11-18T02:30:20;7.30;99.90
18611;DHT22;9435;52.122;5.502;2022-11-18T02:32:52;7.30;99.90
18611;DHT22;9435;52.122;5.502;2022-11-18T02:35:27;7.30;99.90
18611;DHT22;9435;52.122;5.502;2022-11-18T02:37:57;7.30;99.90
18611;DHT22;9435;52.122;5.502;2022-11-18T02:40:29;7.30;99.90
18611;DHT22;9435;52.122;5.502;2022-11-18T02:43:01;7.30;99.90
18611;DHT22;9435;52.122;5.502;2022-11-18T02:45:32;7.30;99.90
18611;DHT22;9435;52.122;5.502;2022-11-18T02:48:03;7.30;99.90
18611;DHT22;9435;52.122;5.502;2022-11-18T02:50:32;7.20;99.90
18611;DHT22;9435;52.122;5.502;2022-11-18T02:53:02;7.20;99.90
18611;DHT22;9435;52.122;5.502;2022-11-18T02:55:33;7.20;99.90
18611;DHT22;9435;52.122;5.502;2022-11-18T02:58:02;7.20;99.90
18611;DHT22;9435;52.122;5.502;2022-11-18T03:00:32;7.20;99.90
18611;DHT22;9435;52.122;5.502;2022-11-18T03:02:59;7.20;99.90
18611;DHT22;9435;52.122;5.502;2022-11-18T03:05:45;7.30;99.90
18611;DHT22;9435;52.122;5.502;2022-11-18T03:08:21;7.30;99.90
18611;DHT22;9435;52.122;5.502;2022-11-18T03:10:53;7.30;99.90
18611;DHT22;9435;52.122;5.502;2022-11-18T03:13:29;7.40;99.90
18611;DHT22;9435;52.122;5.502;2022-11-18T03:16:02;7.40;99.90
18611;DHT22;9435;52.122;5.502;2022-11-18T03:18:36;7.40;99.90
18611;DHT22;9435;52.122;5.502;2022-11-18T03:21:09;7.50;99.90
18611;DHT22;9435;52.122;5.502;2022-11-18T03:23:39;7.50;99.90
18611;DHT22;9435;52.122;5.502;2022-11-18T03:26:11;7.50;99.90
18611;DHT22;9435;52.122;5.502;2022-11-18T03:28:43;7.50;99.90
18611;DHT22;9435;52.122;5.502;2022-11-18T03:31:17;7.60;99.90
18611;DHT22;9435;52.122;5.502;2022-11-18T03:33:47;7.50;99.90
18611;DHT22;9435;52.122;5.502;2022-11-18T03:36:16;7.60;99.90
18611;DHT22;9435;52.122;5.502;2022-11-18T03:38:47;7.60;99.90
18611;DHT22;9435;52.122;5.502;2022-11-18T03:41:17;7.60;99.90
18611;DHT22;9435;52.122;5.502;2022-11-18T03:43:48;7.60;99.90
18611;DHT22;9435;52.122;5.502;2022-11-18T03:46:20;7.70;99.90
18611;DHT22;9435;52.122;5.502;2022-11-18T03:48:51;7.70;99.90
18611;DHT22;9435;52.122;5.502;2022-11-18T03:51:21;7.70;99.90
18611;DHT22;9435;52.122;5.502;2022-11-18T03:53:52;7.70;99.90
18611;DHT22;9435;52.122;5.502;2022-11-18T03:56:29;7.70;99.90
18611;DHT22;9435;52.122;5.502;2022-11-18T03:59:02;7.80;99.90
18611;DHT22;9435;52.122;5.502;2022-11-18T04:01:38;7.80;99.90
18611;DHT22;9435;52.122;5.502;2022-11-18T04:04:06;7.80;99.90
18611;DHT22;9435;52.122;5.502;2022-11-18T04:06:37;7.80;99.90
18611;DHT22;9435;52.122;5.502;2022-11-18T04:09:09;7.80;99.90
18611;DHT22;9435;52.122;5.502;2022-11-18T04:11:44;7.90;99.90
18611;DHT22;9435;52.122;5.502;2022-11-18T04:14:32;7.90;99.90
18611;DHT22;9435;52.122;5.502;2022-11-18T04:17:05;7.80;99.90
18611;DHT22;9435;52.122;5.502;2022-11-18T04:19:33;7.80;99.90
18611;DHT22;9435;52.122;5.502;2022-11-18T04:22:00;7.80;99.90
18611;DHT22;9435;52.122;5.502;2022-11-18T04:24:27;7.80;99.90
18611;DHT22;9435;52.122;5.502;2022-11-18T04:26:54;7.80;99.90
18611;DHT22;9435;52.122;5.502;2022-11-18T04:29:21;7.80;99.90
18611;DHT22;9435;52.122;5.502;2022-11-18T04:31:48;7.80;99.90
18611;DHT22;9435;52.122;5.502;2022-11-18T04:34:17;7.80;99.90
18611;DHT22;9435;52.122;5.502;2022-11-18T04:36:44;7.80;99.90
18611;DHT22;9435;52.122;5.502;2022-11-18T04:39:11;7.70;99.90
18611;DHT22;9435;52.122;5.502;2022-11-18T04:41:38;7.80;99.90
18611;DHT22;9435;52.122;5.502;2022-11-18T04:44:24;7.70;99.90
18611;DHT22;9435;52.122;5.502;2022-11-18T04:46:52;7.60;99.90
18611;DHT22;9435;52.122;5.502;2022-11-18T04:49:22;7.60;99.90
18611;DHT22;9435;52.122;5.502;2022-11-18T04:51:49;7.60;99.90
18611;DHT22;9435;52.122;5.502;2022-11-18T04:54:17;7.60;99.90
18611;DHT22;9435;52.122;5.502;2022-11-18T04:56:45;7.60;99.90
18611;DHT22;9435;52.122;5.502;2022-11-18T04:59:14;7.50;99.90
18611;DHT22;9435;52.122;5.502;2022-11-18T05:01:41;7.50;99.90
18611;DHT22;9435;52.122;5.502;2022-11-18T05:04:12;7.50;99.90
18611;DHT22;9435;52.122;5.502;2022-11-18T05:06:41;7.50;99.90
18611;DHT22;9435;52.122;5.502;2022-11-18T05:09:08;7.40;99.90
18611;DHT22;9435;52.122;5.502;2022-11-18T05:11:35;7.40;99.90
18611;DHT22;9435;52.122;5.502;2022-11-18T05:14:20;7.50;99.90
18611;DHT22;9435;52.122;5.502;2022-11-18T05:16:47;7.50;99.90
18611;DHT22;9435;52.122;5.502;2022-11-18T05:19:14;7.40;99.90
18611;DHT22;9435;52.122;5.502;2022-11-18T05:21:42;7.40;99.90
18611;DHT22;9435;52.122;5.502;2022-11-18T05:24:09;7.40;99.90
18611;DHT22;9435;52.122;5.502;2022-11-18T05:26:36;7.40;99.90
18611;DHT22;9435;52.122;5.502;2022-11-18T05:29:04;7.40;99.90
18611;DHT22;9435;52.122;5.502;2022-11-18T05:31:31;7.40;99.90
18611;DHT22;9435;52.122;5.502;2022-11-18T05:33:58;7.30;99.90
18611;DHT22;9435;52.122;5.502;2022-11-18T05:36:26;7.40;99.90
18611;DHT22;9435;52.122;5.502;2022-11-18T05:38:57;7.40;99.90
18611;DHT22;9435;52.122;5.502;2022-11-18T05:41:24;7.30;99.90
18611;DHT22;9435;52.122;5.502;2022-11-18T05:44:05;7.30;99.90
18611;DHT22;9435;52.122;5.502;2022-11-18T05:46:33;7.30;99.90
18611;DHT22;9435;52.122;5.502;2022-11-18T05:49:00;7.30;99.90
18611;DHT22;9435;52.122;5.502;2022-11-18T05:51:27;7.30;99.90
18611;DHT22;9435;52.122;5.502;2022-11-18T05:53:55;7.40;99.90
18611;DHT22;9435;52.122;5.502;2022-11-18T05:56:26;7.30;99.90
18611;DHT22;9435;52.122;5.502;2022-11-18T05:58:53;7.30;99.90
18611;DHT22;9435;52.122;5.502;2022-11-18T06:01:23;7.30;99.90
18611;DHT22;9435;52.122;5.502;2022-11-18T06:03:52;7.30;99.90
18611;DHT22;9435;52.122;5.502;2022-11-18T06:06:19;7.30;99.90
18611;DHT22;9435;52.122;5.502;2022-11-18T06:08:50;7.30;99.90
18611;DHT22;9435;52.122;5.502;2022-11-18T06:11:20;7.30;99.90
18611;DHT22;9435;52.122;5.502;2022-11-18T06:13:50;7.30;99.90
18611;DHT22;9435;52.122;5.502;2022-11-18T06:16:21;7.30;99.90
18611;DHT22;9435;52.122;5.502;2022-11-18T06:18:49;7.20;99.90
18611;DHT22;9435;52.122;5.502;2022-11-18T06:21:16;7.20;99.90
18611;DHT22;9435;52.122;5.502;2022-11-18T06:23:43;7.20;99.90
18611;DHT22;9435;52.122;5.502;2022-11-18T06:26:12;7.20;99.90
18611;DHT22;9435;52.122;5.502;2022-11-18T06:28:43;7.20;99.90
18611;DHT22;9435;52.122;5.502;2022-11-18T06:31:11;7.10;99.90
18611;DHT22;9435;52.122;5.502;2022-11-18T06:33:38;7.10;99.90
18611;DHT22;9435;52.122;5.502;2022-11-18T06:36:05;7.10;99.90
18611;DHT22;9435;52.122;5.502;2022-11-18T06:38:32;7.10;99.90
18611;DHT22;9435;52.122;5.502;2022-11-18T06:41:00;7.10;99.90
18611;DHT22;9435;52.122;5.502;2022-11-18T06:43:28;7.10;99.90
18611;DHT22;9435;52.122;5.502;2022-11-18T06:46:13;7.00;99.90
18611;DHT22;9435;52.122;5.502;2022-11-18T06:48:58;7.00;99.90
18611;DHT22;9435;52.122;5.502;2022-11-18T06:51:26;7.00;99.90
18611;DHT22;9435;52.122;5.502;2022-11-18T06:53:53;7.00;99.90
18611;DHT22;9435;52.122;5.502;2022-11-18T06:56:21;6.90;99.90
18611;DHT22;9435;52.122;5.502;2022-11-18T06:58:52;6.90;99.90
18611;DHT22;9435;52.122;5.502;2022-11-18T07:01:22;6.90;99.90
18611;DHT22;9435;52.122;5.502;2022-11-18T07:03:49;6.90;99.90
18611;DHT22;9435;52.122;5.502;2022-11-18T07:06:19;6.90;99.90
18611;DHT22;9435;52.122;5.502;2022-11-18T07:08:46;6.90;99.90
18611;DHT22;9435;52.122;5.502;2022-11-18T07:11:14;6.90;99.90
18611;DHT22;9435;52.122;5.502;2022-11-18T07:13:42;6.90;99.90
18611;DHT22;9435;52.122;5.502;2022-11-18T07:16:11;6.90;99.90
18611;DHT22;9435;52.122;5.502;2022-11-18T07:18:40;6.90;99.90
18611;DHT22;9435;52.122;5.502;2022-11-18T07:21:10;6.90;99.90
18611;DHT22;9435;52.122;5.502;2022-11-18T07:23:37;6.90;99.90
18611;DHT22;9435;52.122;5.502;2022-11-18T07:26:05;6.90;99.90
18611;DHT22;9435;52.122;5.502;2022-11-18T07:28:32;7.00;99.90
18611;DHT22;9435;52.122;5.502;2022-11-18T07:31:00;7.00;99.90
18611;DHT22;9435;52.122;5.502;2022-11-18T07:33:28;7.00;99.90
18611;DHT22;9435;52.122;5.502;2022-11-18T07:35:59;7.10;99.90
18611;DHT22;9435;52.122;5.502;2022-11-18T07:38:27;7.10;99.90
18611;DHT22;9435;52.122;5.502;2022-11-18T07:40:55;7.20;99.90
18611;DHT22;9435;52.122;5.502;2022-11-18T07:43:22;7.20;99.90
18611;DHT22;9435;52.122;5.502;2022-11-18T07:45:49;7.20;99.90
18611;DHT22;9435;52.122;5.502;2022-11-18T07:48:16;7.20;99.90
18611;DHT22;9435;52.122;5.502;2022-11-18T07:50:43;7.30;99.90
18611;DHT22;9435;52.122;5.502;2022-11-18T07:53:11;7.30;99.90
18611;DHT22;9435;52.122;5.502;2022-11-18T07:55:38;7.40;99.90
18611;DHT22;9435;52.122;5.502;2022-11-18T07:58:05;7.40;99.90
18611;DHT22;9435;52.122;5.502;2022-11-18T08:00:32;7.40;99.90
18611;DHT22;9435;52.122;5.502;2022-11-18T08:02:59;7.50;99.90
18611;DHT22;9435;52.122;5.502;2022-11-18T08:05:26;7.50;99.90
18611;DHT22;9435;52.122;5.502;2022-11-18T08:07:53;7.60;99.90
18611;DHT22;9435;52.122;5.502;2022-11-18T08:10:22;7.60;99.90
18611;DHT22;9435;52.122;5.502;2022-11-18T08:12:49;7.60;99.90
18611;DHT22;9435;52.122;5.502;2022-11-18T08:15:16;7.70;99.90
18611;DHT22;9435;52.122;5.502;2022-11-18T08:17:43;7.70;99.90
18611;DHT22;9435;52.122;5.502;2022-11-18T08:20:11;7.80;99.90
18611;DHT22;9435;52.122;5.502;2022-11-18T08:22:38;7.80;99.90
18611;DHT22;9435;52.122;5.502;2022-11-18T08:25:06;7.80;99.90
18611;DHT22;9435;52.122;5.502;2022-11-18T08:27:34;7.90;99.90
18611;DHT22;9435;52.122;5.502;2022-11-18T08:30:01;7.90;99.90
18611;DHT22;9435;52.122;5.502;2022-11-18T08:32:29;8.00;99.90
18611;DHT22;9435;52.122;5.502;2022-11-18T08:34:56;8.00;99.90
18611;DHT22;9435;52.122;5.502;2022-11-18T08:37:23;8.10;99.90
18611;DHT22;9435;52.122;5.502;2022-11-18T08:39:50;8.10;99.90
18611;DHT22;9435;52.122;5.502;2022-11-18T08:42:17;8.10;99.90
18611;DHT22;9435;52.122;5.502;2022-11-18T08:44:48;8.20;99.90
18611;DHT22;9435;52.122;5.502;2022-11-18T08:47:15;8.20;99.90
18611;DHT22;9435;52.122;5.502;2022-11-18T08:49:42;8.20;99.90
18611;DHT22;9435;52.122;5.502;2022-11-18T08:52:09;8.20;99.90
18611;DHT22;9435;52.122;5.502;2022-11-18T08:54:36;8.30;99.90
18611;DHT22;9435;52.122;5.502;2022-11-18T08:57:03;8.30;99.90
18611;DHT22;9435;52.122;5.502;2022-11-18T08:59:30;8.30;99.90
18611;DHT22;9435;52.122;5.502;2022-11-18T09:01:59;8.30;99.90
18611;DHT22;9435;52.122;5.502;2022-11-18T09:04:26;8.30;99.90
18611;DHT22;9435;52.122;5.502;2022-11-18T09:06:53;8.40;99.90
18611;DHT22;9435;52.122;5.502;2022-11-18T09:09:20;8.40;99.90
18611;DHT22;9435;52.122;5.502;2022-11-18T09:11:47;8.40;99.90
18611;DHT22;9435;52.122;5.502;2022-11-18T09:14:14;8.40;99.90
18611;DHT22;9435;52.122;5.502;2022-11-18T09:16:43;8.40;99.90
18611;DHT22;9435;52.122;5.502;2022-11-18T09:19:13;8.50;99.90
18611;DHT22;9435;52.122;5.502;2022-11-18T09:21:40;8.50;99.90
18611;DHT22;9435;52.122;5.502;2022-11-18T09:24:07;8.50;99.90
18611;DHT22;9435;52.122;5.502;2022-11-18T09:26:36;8.50;99.90
18611;DHT22;9435;52.122;5.502;2022-11-18T09:29:03;8.60;99.90
18611;DHT22;9435;52.122;5.502;2022-11-18T09:31:30;8.60;99.90
18611;DHT22;9435;52.122;5.502;2022-11-18T09:33:58;8.70;99.90
18611;DHT22;9435;52.122;5.502;2022-11-18T09:36:27;8.70;99.90
18611;DHT22;9435;52.122;5.502;2022-11-18T09:38:54;8.80;99.90
18611;DHT22;9435;52.122;5.502;2022-11-18T09:41:36;8.80;99.90
18611;DHT22;9435;52.122;5.502;2022-11-18T09:44:11;8.80;99.90
18611;DHT22;9435;52.122;5.502;2022-11-18T09:46:53;8.80;99.90
18611;DHT22;9435;52.122;5.502;2022-11-18T09:49:27;8.90;99.90
18611;DHT22;9435;52.122;5.502;2022-11-18T09:51:59;8.90;99.90
18611;DHT22;9435;52.122;5.502;2022-11-18T09:54:32;9.00;99.90
18611;DHT22;9435;52.122;5.502;2022-11-18T09:56:59;9.00;99.90
18611;DHT22;9435;52.122;5.502;2022-11-18T09:59:30;9.10;99.90
18611;DHT22;9435;52.122;5.502;2022-11-18T10:02:07;9.10;99.90
18611;DHT22;9435;52.122;5.502;2022-11-18T10:04:37;9.10;99.90
18611;DHT22;9435;52.122;5.502;2022-11-18T10:07:12;9.10;99.90
18611;DHT22;9435;52.122;5.502;2022-11-18T10:09:42;9.20;99.90
18611;DHT22;9435;52.122;5.502;2022-11-18T10:12:21;9.20;99.90
18611;DHT22;9435;52.122;5.502;2022-11-18T10:15:15;9.20;99.90
18611;DHT22;9435;52.122;5.502;2022-11-18T10:17:53;9.20;99.90
18611;DHT22;9435;52.122;5.502;2022-11-18T10:20:35;9.30;99.90
18611;DHT22;9435;52.122;5.502;2022-11-18T10:23:14;9.30;99.90
18611;DHT22;9435;52.122;5.502;2022-11-18T10:25:42;9.30;99.90
18611;DHT22;9435;52.122;5.502;2022-11-18T10:28:20;9.40;99.90
18611;DHT22;9435;52.122;5.502;2022-11-18T10:30:47;9.40;99.90
18611;DHT22;9435;52.122;5.502;2022-11-18T10:33:32;9.50;99.90
18611;DHT22;9435;52.122;5.502;2022-11-18T10:36:26;9.50;99.90
18611;DHT22;9435;52.122;5.502;2022-11-18T10:39:10;9.40;99.90
18611;DHT22;9435;52.122;5.502;2022-11-18T10:41:42;9.40;99.90
18611;DHT22;9435;52.122;5.502;2022-11-18T10:44:29;9.40;99.90
18611;DHT22;9435;52.122;5.502;2022-11-18T10:47:15;9.50;99.90
18611;DHT22;9435;52.122;5.502;2022-11-18T10:49:42;9.50;99.90
18611;DHT22;9435;52.122;5.502;2022-11-18T10:52:11;9.60;99.90
18611;DHT22;9435;52.122;5.502;2022-11-18T10:54:40;9.60;99.90
18611;DHT22;9435;52.122;5.502;2022-11-18T10:57:14;9.60;99.90
18611;DHT22;9435;52.122;5.502;2022-11-18T10:59:46;9.60;99.90
18611;DHT22;9435;52.122;5.502;2022-11-18T11:02:17;9.70;99.90
18611;DHT22;9435;52.122;5.502;2022-11-18T11:04:46;9.70;99.90
18611;DHT22;9435;52.122;5.502;2022-11-18T11:07:15;9.80;99.90
18611;DHT22;9435;52.122;5.502;2022-11-18T11:09:58;9.80;99.90
18611;DHT22;9435;52.122;5.502;2022-11-18T11:12:27;9.90;99.90
18611;DHT22;9435;52.122;5.502;2022-11-18T11:14:56;9.90;99.90
18611;DHT22;9435;52.122;5.502;2022-11-18T11:17:29;10.00;99.90
18611;DHT22;9435;52.122;5.502;2022-11-18T11:20:03;10.00;99.90
18611;DHT22;9435;52.122;5.502;2022-11-18T11:22:31;10.00;99.90
18611;DHT22;9435;52.122;5.502;2022-11-18T11:24:59;10.10;99.90
18611;DHT22;9435;52.122;5.502;2022-11-18T11:27:42;10.10;99.90
18611;DHT22;9435;52.122;5.502;2022-11-18T11:30:17;10.10;99.90
18611;DHT22;9435;52.122;5.502;2022-11-18T11:33:10;10.20;99.90
18611;DHT22;9435;52.122;5.502;2022-11-18T11:35:48;10.20;99.90
18611;DHT22;9435;52.122;5.502;2022-11-18T11:38:20;10.20;99.90
18611;DHT22;9435;52.122;5.502;2022-11-18T11:41:01;10.30;99.90
18611;DHT22;9435;52.122;5.502;2022-11-18T11:43:37;10.30;99.90
18611;DHT22;9435;52.122;5.502;2022-11-18T11:46:18;10.30;99.90
18611;DHT22;9435;52.122;5.502;2022-11-18T11:48:56;10.30;99.90
18611;DHT22;9435;52.122;5.502;2022-11-18T11:51:31;10.30;99.90
18611;DHT22;9435;52.122;5.502;2022-11-18T11:54:23;10.30;99.90
18611;DHT22;9435;52.122;5.502;2022-11-18T11:56:57;10.30;99.90
18611;DHT22;9435;52.122;5.502;2022-11-18T11:59:29;10.30;99.90
18611;DHT22;9435;52.122;5.502;2022-11-18T12:02:20;10.40;99.90
18611;DHT22;9435;52.122;5.502;2022-11-18T12:04:55;10.40;99.90
18611;DHT22;9435;52.122;5.502;2022-11-18T12:07:25;10.40;99.90
18611;DHT22;9435;52.122;5.502;2022-11-18T12:10:16;10.50;99.90
18611;DHT22;9435;52.122;5.502;2022-11-18T12:12:51;10.50;99.90
18611;DHT22;9435;52.122;5.502;2022-11-18T12:15:29;10.60;99.90
18611;DHT22;9435;52.122;5.502;2022-11-18T12:18:04;10.60;99.90
18611;DHT22;9435;52.122;5.502;2022-11-18T12:20:42;10.70;99.90
18611;DHT22;9435;52.122;5.502;2022-11-18T12:23:12;10.70;99.90
18611;DHT22;9435;52.122;5.502;2022-11-18T12:25:53;10.80;99.90
18611;DHT22;9435;52.122;5.502;2022-11-18T12:28:30;10.80;99.90
18611;DHT22;9435;52.122;5.502;2022-11-18T12:31:31;10.80;99.90
18611;DHT22;9435;52.122;5.502;2022-11-18T12:39:59;10.80;99.90
18611;DHT22;9435;52.122;5.502;2022-11-18T12:42:43;10.80;99.90
18611;DHT22;9435;52.122;5.502;2022-11-18T12:45:48;10.80;99.90
18611;DHT22;9435;52.122;5.502;2022-11-18T12:48:36;10.80;99.90
18611;DHT22;9435;52.122;5.502;2022-11-18T12:54:32;10.70;99.90
18611;DHT22;9435;52.122;5.502;2022-11-18T12:57:01;10.70;99.90
18611;DHT22;9435;52.122;5.502;2022-11-18T12:59:31;10.70;99.90
18611;DHT22;9435;52.122;5.502;2022-11-18T13:02:17;10.70;99.90
18611;DHT22;9435;52.122;5.502;2022-11-18T13:04:44;10.70;99.90
18611;DHT22;9435;52.122;5.502;2022-11-18T13:07:12;10.70;99.90
18611;DHT22;9435;52.122;5.502;2022-11-18T13:09:53;10.80;99.90
18611;DHT22;9435;52.122;5.502;2022-11-18T13:12:24;10.80;99.90
18611;DHT22;9435;52.122;5.502;2022-11-18T13:14:52;10.80;99.90
18611;DHT22;9435;52.122;5.502;2022-11-18T13:17:40;10.90;99.90
18611;DHT22;9435;52.122;5.502;2022-11-18T13:20:23;11.00;99.90
18611;DHT22;9435;52.122;5.502;2022-11-18T13:22:57;11.10;99.90
18611;DHT22;9435;52.122;5.502;2022-11-18T13:25:42;11.00;99.90
18611;DHT22;9435;52.122;5.502;2022-11-18T13:28:19;10.90;99.90
18611;DHT22;9435;52.122;5.502;2022-11-18T13:30:51;10.80;99.90
18611;DHT22;9435;52.122;5.502;2022-11-18T13:33:21;10.80;99.90
18611;DHT22;9435;52.122;5.502;2022-11-18T13:35:48;10.80;99.90
18611;DHT22;9435;52.122;5.502;2022-11-18T13:38:20;10.80;99.90
18611;DHT22;9435;52.122;5.502;2022-11-18T13:40:50;10.80;99.90
18611;DHT22;9435;52.122;5.502;2022-11-18T13:43:37;10.80;99.90
18611;DHT22;9435;52.122;5.502;2022-11-18T13:46:09;10.90;99.90
18611;DHT22;9435;52.122;5.502;2022-11-18T13:48:41;10.80;99.90
18611;DHT22;9435;52.122;5.502;2022-11-18T13:51:11;10.80;99.90
18611;DHT22;9435;52.122;5.502;2022-11-18T13:53:39;10.80;99.90
18611;DHT22;9435;52.122;5.502;2022-11-18T13:56:15;10.80;99.90
18611;DHT22;9435;52.122;5.502;2022-11-18T13:58:44;10.80;99.90
18611;DHT22;9435;52.122;5.502;2022-11-18T14:01:18;10.80;99.90
18611;DHT22;9435;52.122;5.502;2022-11-18T14:03:50;10.80;99.90
18611;DHT22;9435;52.122;5.502;2022-11-18T14:06:25;10.80;99.90
18611;DHT22;9435;52.122;5.502;2022-11-18T14:09:11;10.80;99.90
18611;DHT22;9435;52.122;5.502;2022-11-18T14:11:42;10.80;99.90
18611;DHT22;9435;52.122;5.502;2022-11-18T14:14:10;10.80;99.90
18611;DHT22;9435;52.122;5.502;2022-11-18T14:16:39;10.70;99.90
18611;DHT22;9435;52.122;5.502;2022-11-18T14:19:23;10.80;99.90
18611;DHT22;9435;52.122;5.502;2022-11-18T14:21:52;10.70;99.90
18611;DHT22;9435;52.122;5.502;2022-11-18T14:24:25;10.70;99.90
18611;DHT22;9435;52.122;5.502;2022-11-18T14:26:52;10.70;99.90
18611;DHT22;9435;52.122;5.502;2022-11-18T14:29:19;10.70;99.90
18611;DHT22;9435;52.122;5.502;2022-11-18T14:32:03;10.60;99.90
18611;DHT22;9435;52.122;5.502;2022-11-18T14:34:32;10.50;99.90
18611;DHT22;9435;52.122;5.502;2022-11-18T14:36:59;10.50;99.90
18611;DHT22;9435;52.122;5.502;2022-11-18T14:39:28;10.40;99.90
18611;DHT22;9435;52.122;5.502;2022-11-18T14:41:56;10.30;99.90
18611;DHT22;9435;52.122;5.502;2022-11-18T14:44:26;10.30;99.90
18611;DHT22;9435;52.122;5.502;2022-11-18T14:46:56;10.30;99.90
18611;DHT22;9435;52.122;5.502;2022-11-18T14:49:25;10.20;99.90
18611;DHT22;9435;52.122;5.502;2022-11-18T14:51:56;10.20;99.90
18611;DHT22;9435;52.122;5.502;2022-11-18T14:54:24;10.20;99.90
18611;DHT22;9435;52.122;5.502;2022-11-18T14:56:54;10.20;99.90
18611;DHT22;9435;52.122;5.502;2022-11-18T14:59:22;10.10;99.90
18611;DHT22;9435;52.122;5.502;2022-11-18T15:01:49;10.10;99.90
18611;DHT22;9435;52.122;5.502;2022-11-18T15:04:16;10.10;99.90
18611;DHT22;9435;52.122;5.502;2022-11-18T15:06:45;10.10;99.90
18611;DHT22;9435;52.122;5.502;2022-11-18T15:09:13;10.10;99.90
18611;DHT22;9435;52.122;5.502;2022-11-18T15:11:41;10.00;99.90
18611;DHT22;9435;52.122;5.502;2022-11-18T15:14:09;10.00;99.90
18611;DHT22;9435;52.122;5.502;2022-11-18T15:16:36;10.00;99.90
18611;DHT22;9435;52.122;5.502;2022-11-18T15:19:04;10.00;99.90
18611;DHT22;9435;52.122;5.502;2022-11-18T15:21:32;9.90;99.90
18611;DHT22;9435;52.122;5.502;2022-11-18T15:23:59;9.90;99.90
18611;DHT22;9435;52.122;5.502;2022-11-18T15:26:29;9.90;99.90
18611;DHT22;9435;52.122;5.502;2022-11-18T15:29:00;9.90;99.90
18611;DHT22;9435;52.122;5.502;2022-11-18T15:31:27;9.80;99.90
18611;DHT22;9435;52.122;5.502;2022-11-18T15:33:54;9.80;99.90
18611;DHT22;9435;52.122;5.502;2022-11-18T15:36:23;9.70;99.90
18611;DHT22;9435;52.122;5.502;2022-11-18T15:38:51;9.70;99.90
18611;DHT22;9435;52.122;5.502;2022-11-18T15:41:20;9.70;99.90
18611;DHT22;9435;52.122;5.502;2022-11-18T15:43:49;9.70;99.90
18611;DHT22;9435;52.122;5.502;2022-11-18T15:46:18;9.70;99.90
18611;DHT22;9435;52.122;5.502;2022-11-18T15:48:46;9.70;99.90
18611;DHT22;9435;52.122;5.502;2022-11-18T15:51:14;9.60;99.90
18611;DHT22;9435;52.122;5.502;2022-11-18T15:53:41;9.60;99.90
18611;DHT22;9435;52.122;5.502;2022-11-18T15:56:19;9.60;99.90
18611;DHT22;9435;52.122;5.502;2022-11-18T15:58:52;9.50;99.90
18611;DHT22;9435;52.122;5.502;2022-11-18T16:01:19;9.60;99.90
18611;DHT22;9435;52.122;5.502;2022-11-18T16:03:48;9.60;99.90
18611;DHT22;9435;52.122;5.502;2022-11-18T16:06:15;9.60;99.90
18611;DHT22;9435;52.122;5.502;2022-11-18T16:08:42;9.60;99.90
18611;DHT22;9435;52.122;5.502;2022-11-18T16:11:10;9.60;99.90
18611;DHT22;9435;52.122;5.502;2022-11-18T16:14:00;9.40;99.90
18611;DHT22;9435;52.122;5.502;2022-11-18T16:16:28;9.50;99.90
18611;DHT22;9435;52.122;5.502;2022-11-18T16:18:56;9.40;99.90
18611;DHT22;9435;52.122;5.502;2022-11-18T16:21:24;9.40;99.90
18611;DHT22;9435;52.122;5.502;2022-11-18T16:23:54;9.30;99.90
18611;DHT22;9435;52.122;5.502;2022-11-18T16:26:22;9.30;99.90
18611;DHT22;9435;52.122;5.502;2022-11-18T16:28:49;9.40;99.90
18611;DHT22;9435;52.122;5.502;2022-11-18T16:31:18;9.40;99.90
18611;DHT22;9435;52.122;5.502;2022-11-18T16:34:06;9.40;99.90
18611;DHT22;9435;52.122;5.502;2022-11-18T16:36:33;9.40;99.90